createdAt,value
2018-05-14T00:01:29.740Z,91.50
2018-05-14T00:03:58.064Z,90.27
2018-05-14T00:06:27.256Z,92.07
2018-05-14T00:08:55.762Z,91.57
2018-05-14T00:11:24.081Z,93.03
2018-05-14T00:13:52.395Z,90.17
2018-05-14T00:16:21.468Z,90.33
2018-05-14T00:18:49.766Z,95.87
2018-05-14T00:21:18.817Z,93.50
2018-05-14T00:23:47.149Z,95.57
2018-05-14T00:26:15.394Z,94.00
2018-05-14T00:28:43.693Z,94.73
2018-05-14T00:31:12.769Z,93.00
2018-05-14T00:33:41.080Z,90.03
2018-05-14T00:36:10.129Z,94.37
2018-05-14T00:38:38.437Z,88.17
2018-05-14T00:41:07.545Z,92.60
2018-05-14T00:43:36.615Z,94.20
2018-05-14T00:46:04.932Z,87.73
2018-05-14T00:48:36.506Z,90.67
2018-05-14T00:51:04.828Z,88.33
2018-05-14T00:53:33.498Z,91.93
2018-05-14T00:56:02.615Z,92.43
2018-05-14T00:58:30.924Z,86.43
2018-05-14T01:00:59.238Z,80.57
2018-05-14T01:03:27.546Z,78.77
2018-05-14T01:05:55.888Z,84.30
2018-05-14T01:08:24.233Z,70.93
2018-05-14T01:10:53.298Z,93.90
2018-05-14T01:13:21.586Z,92.20
2018-05-14T01:15:50.658Z,92.80
2018-05-14T01:18:18.971Z,90.03
2018-05-14T01:20:48.054Z,87.77
2018-05-14T01:23:17.104Z,89.83
2018-05-14T01:25:45.399Z,96.97
2018-05-14T01:28:13.740Z,92.27
2018-05-14T01:30:41.989Z,88.63
2018-05-14T01:33:11.049Z,89.90
2018-05-14T01:35:40.123Z,98.07
2018-05-14T01:38:08.442Z,100.00
2018-05-14T01:40:37.089Z,87.57
2018-05-14T01:43:05.390Z,88.83
2018-05-14T01:45:33.702Z,87.83
2018-05-14T01:48:02.755Z,81.37
2018-05-14T01:50:31.055Z,81.43
2018-05-14T01:53:00.131Z,93.97
2018-05-14T01:55:28.470Z,84.73
2018-05-14T01:57:56.777Z,84.13
2018-05-14T02:00:25.065Z,76.43
2018-05-14T02:02:53.349Z,92.57
2018-05-14T02:05:21.683Z,93.33
2018-05-14T02:07:50.005Z,94.00
2018-05-14T02:10:18.343Z,92.70
2018-05-14T02:12:46.653Z,82.60
2018-05-14T02:15:14.958Z,87.30
2018-05-14T02:17:44.023Z,90.93
2018-05-14T02:20:12.353Z,87.37
2018-05-14T02:22:40.884Z,91.07
2018-05-14T02:25:09.187Z,101.83
2018-05-14T02:27:38.305Z,80.67
2018-05-14T02:30:06.628Z,80.10
2018-05-14T02:32:34.960Z,91.27
2018-05-14T02:35:03.294Z,88.33
2018-05-14T02:37:31.581Z,93.00
2018-05-14T02:39:59.903Z,91.63
2018-05-14T02:42:28.450Z,88.67
2018-05-14T02:44:56.832Z,92.63
2018-05-14T02:47:25.182Z,87.37
2018-05-14T02:49:53.471Z,95.67
2018-05-14T02:52:21.819Z,86.50
2018-05-14T02:54:50.316Z,69.37
2018-05-14T02:57:18.599Z,89.33
2018-05-14T02:59:46.986Z,79.73
2018-05-14T03:02:15.317Z,91.83
2018-05-14T03:04:44.037Z,85.93
2018-05-14T03:07:12.359Z,92.23
2018-05-14T03:09:40.679Z,77.73
2018-05-14T03:12:08.960Z,71.00
2018-05-14T03:14:37.252Z,82.43
2018-05-14T03:17:05.556Z,94.17
2018-05-14T03:19:35.318Z,92.37
2018-05-14T03:22:03.612Z,87.03
2018-05-14T03:24:31.944Z,90.50
2018-05-14T03:27:01.006Z,85.70
2018-05-14T03:29:29.309Z,86.97
2018-05-14T03:31:58.420Z,80.33
2018-05-14T03:34:26.740Z,86.90
2018-05-14T03:36:55.074Z,80.33
2018-05-14T03:39:23.393Z,74.53
2018-05-14T03:41:51.788Z,82.93
2018-05-14T03:44:20.134Z,77.90
2018-05-14T03:46:48.555Z,91.17
2018-05-14T03:49:16.882Z,79.07
2018-05-14T03:51:45.201Z,84.20
2018-05-14T03:54:13.511Z,78.10
2018-05-14T03:56:42.627Z,78.20
2018-05-14T03:59:28.777Z,76.53
2018-05-14T04:05:18.552Z,74.23
2018-05-14T04:07:48.091Z,77.47
2018-05-14T04:10:16.396Z,75.97
2018-05-14T04:12:44.716Z,76.10
2018-05-14T04:15:13.061Z,74.37
2018-05-14T04:17:42.114Z,65.67
2018-05-14T04:20:10.428Z,66.03
2018-05-14T04:22:39.706Z,68.27
2018-05-14T04:25:08.016Z,65.07
2018-05-14T04:27:37.122Z,65.10
2018-05-14T04:30:05.443Z,63.47
2018-05-14T04:32:33.760Z,62.10
2018-05-14T04:35:02.855Z,61.07
2018-05-14T04:37:32.115Z,57.43
2018-05-14T04:40:00.389Z,57.00
2018-05-14T04:42:28.670Z,55.13
2018-05-14T04:44:56.997Z,54.97
2018-05-14T04:47:25.317Z,54.60
2018-05-14T04:49:53.578Z,53.97
2018-05-14T04:52:21.899Z,52.47
2018-05-14T04:54:50.672Z,49.87
2018-05-14T04:57:19.161Z,51.93
2018-05-14T04:59:47.460Z,49.20
2018-05-14T05:02:16.562Z,49.37
2018-05-14T05:04:44.886Z,49.37
2018-05-14T05:07:13.216Z,48.30
2018-05-14T05:09:42.254Z,46.50
2018-05-14T05:12:10.597Z,44.33
2018-05-14T05:14:38.885Z,42.70
2018-05-14T05:17:07.252Z,42.17
2018-05-14T05:19:35.519Z,38.83
2018-05-14T05:22:04.560Z,37.80
2018-05-14T05:24:32.885Z,38.17
2018-05-14T05:27:01.942Z,35.60
2018-05-14T05:29:30.270Z,36.83
2018-05-14T05:31:59.313Z,36.20
2018-05-14T05:34:27.690Z,34.20
2018-05-14T05:36:56.416Z,32.53
2018-05-14T05:39:24.749Z,31.70
2018-05-14T05:41:53.040Z,30.07
2018-05-14T05:44:21.387Z,29.67
2018-05-14T05:46:49.680Z,30.67
2018-05-14T05:49:18.609Z,30.83
2018-05-14T05:51:48.069Z,31.70
2018-05-14T05:54:18.381Z,30.53
2018-05-14T05:56:47.425Z,29.23
2018-05-14T05:59:17.376Z,28.67
2018-05-14T06:01:46.521Z,27.07
2018-05-14T06:04:15.765Z,27.60
2018-05-14T06:06:44.081Z,25.87
2018-05-14T06:09:12.374Z,24.73
2018-05-14T06:11:40.755Z,24.77
2018-05-14T06:14:09.071Z,25.47
2018-05-14T06:16:38.144Z,23.83
2018-05-14T06:19:06.438Z,23.70
2018-05-14T06:21:39.770Z,23.27
2018-05-14T06:24:08.138Z,22.33
2018-05-14T06:26:36.483Z,23.37
2018-05-14T06:29:04.781Z,23.30
2018-05-14T06:31:33.886Z,23.13
2018-05-14T06:34:02.193Z,23.97
2018-05-14T06:36:30.489Z,22.63
2018-05-14T06:38:58.977Z,22.40
2018-05-14T06:41:27.618Z,20.50
2018-05-14T06:43:55.941Z,20.77
2018-05-14T06:46:24.237Z,19.63
2018-05-14T06:48:52.536Z,20.37
2018-05-14T06:51:21.631Z,18.47
2018-05-14T06:53:50.013Z,18.10
2018-05-14T06:56:18.313Z,18.00
2018-05-14T06:58:46.600Z,18.57
2018-05-14T07:01:14.916Z,19.00
2018-05-14T07:03:43.242Z,19.35
2018-05-14T07:06:11.559Z,16.45
2018-05-14T07:08:39.881Z,14.82
2018-05-14T07:11:08.907Z,16.73
2018-05-14T07:13:37.228Z,15.35
2018-05-14T07:16:05.597Z,16.80
2018-05-14T07:18:33.893Z,16.65
2018-05-14T07:21:03.257Z,15.98
2018-05-14T07:23:31.742Z,15.70
2018-05-14T07:26:00.052Z,15.55
2018-05-14T07:28:29.108Z,14.90
2018-05-14T07:30:58.069Z,14.98
2018-05-14T07:33:26.355Z,15.25
2018-05-14T07:35:54.667Z,14.95
2018-05-14T07:38:23.008Z,15.13
2018-05-14T07:40:51.341Z,15.80
2018-05-14T07:43:19.648Z,15.27
2018-05-14T07:45:48.060Z,15.02
2018-05-14T07:48:16.421Z,14.35
2018-05-14T07:50:44.827Z,13.98
2018-05-14T07:53:13.127Z,13.90
2018-05-14T07:55:41.456Z,14.32
2018-05-14T07:58:09.896Z,15.88
2018-05-14T08:00:38.226Z,15.52
2018-05-14T08:03:07.118Z,15.05
2018-05-14T08:05:35.517Z,14.50
2018-05-14T08:08:03.870Z,13.77
2018-05-14T08:10:32.183Z,13.48
2018-05-14T08:13:00.515Z,13.13
2018-05-14T08:15:28.834Z,14.68
2018-05-14T08:17:57.164Z,12.43
2018-05-14T08:20:26.285Z,12.75
2018-05-14T08:22:54.626Z,12.52
2018-05-14T08:25:23.662Z,13.25
2018-05-14T08:27:51.964Z,14.00
2018-05-14T08:30:20.253Z,13.35
2018-05-14T08:32:48.553Z,14.60
2018-05-14T08:35:17.615Z,14.55
2018-05-14T08:37:45.960Z,15.05
2018-05-14T08:40:14.267Z,13.88
2018-05-14T08:42:42.592Z,14.65
2018-05-14T08:45:11.960Z,12.88
2018-05-14T08:47:40.297Z,13.00
2018-05-14T08:50:08.677Z,11.25
2018-05-14T08:52:36.946Z,12.63
2018-05-14T08:55:05.256Z,13.15
2018-05-14T08:57:33.556Z,12.67
2018-05-14T09:00:01.860Z,13.00
2018-05-14T09:02:30.147Z,12.17
2018-05-14T09:04:58.455Z,10.83
2018-05-14T09:07:26.730Z,10.32
2018-05-14T09:09:55.068Z,10.50
2018-05-14T09:12:24.116Z,10.65
2018-05-14T09:14:52.428Z,9.95
2018-05-14T09:17:20.720Z,9.73
2018-05-14T09:19:49.050Z,9.55
2018-05-14T09:22:18.098Z,9.43
2018-05-14T09:24:46.417Z,9.50
2018-05-14T09:27:15.145Z,9.02
2018-05-14T09:29:44.234Z,8.30
2018-05-14T09:32:12.538Z,8.52
2018-05-14T09:34:40.979Z,8.63
2018-05-14T09:37:09.990Z,7.80
2018-05-14T09:39:38.264Z,8.15
2018-05-14T09:42:07.354Z,7.62
2018-05-14T09:44:35.705Z,7.60
2018-05-14T09:47:04.759Z,7.05
2018-05-14T09:49:33.090Z,6.60
2018-05-14T09:52:01.417Z,6.65
2018-05-14T09:54:29.725Z,6.15
2018-05-14T09:56:58.066Z,5.85
2018-05-14T09:59:27.113Z,5.90
2018-05-14T10:01:55.416Z,5.93
2018-05-14T10:04:23.719Z,5.22
2018-05-14T10:06:52.043Z,5.20
2018-05-14T10:09:20.369Z,4.75
2018-05-14T10:11:49.418Z,5.03
2018-05-14T10:14:17.823Z,5.18
2018-05-14T10:16:46.112Z,4.93
2018-05-14T10:19:15.207Z,5.18
2018-05-14T10:21:44.231Z,4.93
2018-05-14T10:24:12.531Z,4.87
2018-05-14T10:26:40.821Z,4.85
2018-05-14T10:29:09.092Z,4.18
2018-05-14T10:31:37.414Z,4.20
2018-05-14T10:34:06.474Z,3.97
2018-05-14T10:36:35.505Z,4.15
2018-05-14T10:39:05.317Z,4.22
2018-05-14T10:41:34.376Z,3.85
2018-05-14T10:44:02.664Z,4.18
2018-05-14T10:46:31.006Z,3.90
2018-05-14T10:48:59.306Z,3.55
2018-05-14T10:51:27.611Z,3.33
2018-05-14T10:53:55.895Z,3.47
2018-05-14T10:56:24.946Z,3.22
2018-05-14T10:58:53.282Z,3.83
2018-05-14T11:01:21.956Z,3.17
2018-05-14T11:03:50.999Z,3.33
2018-05-14T11:06:19.293Z,3.47
2018-05-14T11:08:47.603Z,3.20
2018-05-14T11:11:18.851Z,3.03
2018-05-14T11:13:47.911Z,3.90
2018-05-14T11:16:16.244Z,3.30
2018-05-14T11:18:45.308Z,3.40
2018-05-14T11:21:13.597Z,3.60
2018-05-14T11:23:42.640Z,3.30
2018-05-14T11:26:10.958Z,2.97
2018-05-14T11:28:39.282Z,3.20
2018-05-14T11:31:07.582Z,3.20
2018-05-14T11:33:35.865Z,3.70
2018-05-14T11:36:04.228Z,3.23
2018-05-14T11:38:32.510Z,2.90
2018-05-14T11:41:00.797Z,4.10
2018-05-14T11:43:29.098Z,2.93
2018-05-14T11:45:57.388Z,3.67
2018-05-14T11:48:26.759Z,3.20
2018-05-14T11:50:55.156Z,3.07
2018-05-14T11:53:23.406Z,3.10
2018-05-14T11:55:51.669Z,3.73
2018-05-14T11:58:19.958Z,3.60
2018-05-14T12:00:48.252Z,3.73
2018-05-14T12:03:16.580Z,3.40
2018-05-14T12:05:44.836Z,3.03
2018-05-14T12:08:13.929Z,3.17
2018-05-14T12:10:43.061Z,3.60
2018-05-14T12:13:11.416Z,3.40
2018-05-14T12:15:40.464Z,3.23
2018-05-14T12:18:08.862Z,3.37
2018-05-14T12:20:37.863Z,3.80
2018-05-14T12:23:06.185Z,3.73
2018-05-14T12:25:34.518Z,3.60
2018-05-14T12:28:02.836Z,3.27
2018-05-14T12:30:31.166Z,3.77
2018-05-14T12:32:59.496Z,3.33
2018-05-14T12:35:28.039Z,3.87
2018-05-14T12:37:56.375Z,3.80
2018-05-14T12:40:24.660Z,3.77
2018-05-14T12:42:53.004Z,3.90
2018-05-14T12:45:21.316Z,3.73
2018-05-14T12:47:49.642Z,3.70
2018-05-14T12:50:18.710Z,3.63
2018-05-14T12:52:47.023Z,3.50
2018-05-14T12:55:16.122Z,3.37
2018-05-14T12:57:45.059Z,3.40
2018-05-14T13:00:13.385Z,3.97
2018-05-14T13:02:41.776Z,3.73
2018-05-14T13:05:12.891Z,3.33
2018-05-14T13:07:41.308Z,3.80
2018-05-14T13:10:09.628Z,3.57
2018-05-14T13:12:37.922Z,3.70
2018-05-14T13:15:06.251Z,3.90
2018-05-14T13:17:34.576Z,3.57
2018-05-14T13:20:02.956Z,3.53
2018-05-14T13:22:31.410Z,3.57
2018-05-14T13:25:00.737Z,3.53
2018-05-14T13:27:29.064Z,3.50
2018-05-14T13:29:57.398Z,3.40
2018-05-14T13:32:25.707Z,3.30
2018-05-14T13:34:53.957Z,3.83
2018-05-14T13:37:22.309Z,3.70
2018-05-14T13:39:50.831Z,3.80
2018-05-14T13:42:19.211Z,3.73
2018-05-14T13:44:48.348Z,3.70
2018-05-14T13:47:16.799Z,3.70
2018-05-14T13:49:45.836Z,3.93
2018-05-14T13:52:14.194Z,3.77
2018-05-14T13:54:42.533Z,4.00
2018-05-14T13:57:14.421Z,4.10
2018-05-14T13:59:43.453Z,4.00
2018-05-14T14:02:11.760Z,3.67
2018-05-14T14:04:40.845Z,3.53
2018-05-14T14:07:09.138Z,3.70
2018-05-14T14:09:38.556Z,3.73
2018-05-14T14:12:06.908Z,3.73
2018-05-14T14:14:35.189Z,4.33
2018-05-14T14:17:03.534Z,4.20
2018-05-14T14:19:31.777Z,4.17
2018-05-14T14:22:00.067Z,3.80
2018-05-14T14:24:28.527Z,4.17
2018-05-14T14:26:56.753Z,3.90
2018-05-14T14:29:25.053Z,3.70
2018-05-14T14:31:53.330Z,3.70
2018-05-14T14:34:21.654Z,3.83
2018-05-14T14:36:49.929Z,3.87
2018-05-14T14:39:18.220Z,3.73
2018-05-14T14:41:46.552Z,4.27
2018-05-14T14:44:15.649Z,3.60
2018-05-14T14:46:44.724Z,3.80
2018-05-14T14:49:13.037Z,3.47
2018-05-14T14:51:42.069Z,3.70
2018-05-14T14:54:10.372Z,3.83
2018-05-14T14:56:38.745Z,3.90
2018-05-14T14:59:07.239Z,3.93
2018-05-14T15:01:35.536Z,4.27
2018-05-14T15:04:04.593Z,3.93
2018-05-14T15:06:32.909Z,3.67
2018-05-14T15:09:01.992Z,4.07
2018-05-14T15:11:31.112Z,3.37
2018-05-14T15:13:59.395Z,3.70
2018-05-14T15:16:27.705Z,4.40
2018-05-14T15:18:55.980Z,3.87
2018-05-14T15:21:24.280Z,4.27
2018-05-14T15:23:52.605Z,4.20
2018-05-14T15:26:20.908Z,4.30
2018-05-14T15:28:49.145Z,4.30
2018-05-14T15:31:17.507Z,3.70
2018-05-14T15:33:46.270Z,3.70
2018-05-14T15:36:14.624Z,3.80
2018-05-14T15:38:43.711Z,3.70
2018-05-14T15:41:12.099Z,3.80
2018-05-14T15:43:40.408Z,3.57
2018-05-14T15:46:08.728Z,4.33
2018-05-14T15:48:37.030Z,4.37
2018-05-14T15:51:05.360Z,4.07
2018-05-14T15:53:33.679Z,4.43
2018-05-14T15:56:02.004Z,5.10
2018-05-14T15:58:30.327Z,4.30
2018-05-14T16:00:58.659Z,4.07
2018-05-14T16:03:26.989Z,4.23
2018-05-14T16:05:55.311Z,4.27
2018-05-14T16:08:23.650Z,4.53
2018-05-14T16:10:51.969Z,4.80
2018-05-14T16:13:20.262Z,3.97
2018-05-14T16:15:48.593Z,4.23
2018-05-14T16:18:16.932Z,3.60
2018-05-14T16:20:46.206Z,4.17
2018-05-14T16:23:14.476Z,3.87
2018-05-14T16:25:42.764Z,4.23
2018-05-14T16:28:11.119Z,3.67
2018-05-14T16:30:40.169Z,4.07
2018-05-14T16:33:09.274Z,4.27
2018-05-14T16:35:37.577Z,3.87
2018-05-14T16:38:05.911Z,3.53
2018-05-14T16:40:35.018Z,3.80
2018-05-14T16:43:04.070Z,3.70
2018-05-14T16:45:32.376Z,7.83
2018-05-14T16:48:01.429Z,4.33
2018-05-14T16:50:30.514Z,3.70
2018-05-14T16:52:58.849Z,3.47
2018-05-14T16:55:27.932Z,3.33
2018-05-14T16:57:56.343Z,3.60
2018-05-14T17:00:24.576Z,3.80
2018-05-14T17:02:53.005Z,3.77
2018-05-14T17:05:21.325Z,3.57
2018-05-14T17:07:49.631Z,3.80
2018-05-14T17:10:18.201Z,4.00
2018-05-14T17:12:46.412Z,3.40
2018-05-14T17:15:14.691Z,3.87
2018-05-14T17:17:43.048Z,3.57
2018-05-14T17:20:12.205Z,4.57
2018-05-14T17:22:40.519Z,3.40
2018-05-14T17:25:09.572Z,4.10
2018-05-14T17:27:41.733Z,3.67
2018-05-14T17:30:10.063Z,3.73
2018-05-14T17:32:39.129Z,3.80
2018-05-14T17:35:07.429Z,3.80
2018-05-14T17:37:35.752Z,3.50
2018-05-14T17:40:04.028Z,3.67
2018-05-14T17:42:32.324Z,3.97
2018-05-14T17:45:00.650Z,4.40
2018-05-14T17:47:29.773Z,4.03
2018-05-14T17:49:58.101Z,3.93
2018-05-14T17:52:26.423Z,4.13
2018-05-14T17:54:55.044Z,4.60
2018-05-14T17:57:23.391Z,5.53
2018-05-14T17:59:51.694Z,4.10
2018-05-14T18:02:20.029Z,3.77
2018-05-14T18:04:48.346Z,3.40
2018-05-14T18:07:16.660Z,3.50
2018-05-14T18:09:44.975Z,3.40
2018-05-14T18:12:22.385Z,3.40
2018-05-14T18:14:50.779Z,3.43
2018-05-14T18:17:19.157Z,3.53
2018-05-14T18:19:52.990Z,3.17
2018-05-14T18:22:26.061Z,3.47
2018-05-14T18:25:00.044Z,3.80
2018-05-14T18:27:31.918Z,3.13
2018-05-14T18:30:05.819Z,3.50
2018-05-14T18:32:34.127Z,4.00
2018-05-14T18:35:07.957Z,3.50
2018-05-14T18:37:37.042Z,3.70
2018-05-14T18:40:05.397Z,3.40
2018-05-14T18:42:33.707Z,3.70
2018-05-14T18:45:02.795Z,3.40
2018-05-14T18:47:31.109Z,3.40
2018-05-14T18:49:59.807Z,3.40
2018-05-14T18:52:28.120Z,3.23
2018-05-14T18:54:56.454Z,3.33
2018-05-14T18:57:24.748Z,3.20
2018-05-14T18:59:53.670Z,3.80
2018-05-14T19:02:22.017Z,4.13
2018-05-14T19:04:50.313Z,3.10
2018-05-14T19:07:18.601Z,3.40
2018-05-14T19:09:47.049Z,3.70
2018-05-14T19:12:15.369Z,3.80
2018-05-14T19:17:49.949Z,3.23
2018-05-14T19:20:18.295Z,3.33
2018-05-14T19:22:52.282Z,3.50
2018-05-14T19:25:20.684Z,3.43
2018-05-14T19:27:56.220Z,3.60
2018-05-14T19:30:25.356Z,3.83
2018-05-14T19:32:53.759Z,3.90
2018-05-14T19:35:27.898Z,3.90
2018-05-14T19:37:56.190Z,4.10
2018-05-14T19:40:30.033Z,4.43
2018-05-14T19:42:59.327Z,4.00
2018-05-14T19:45:28.407Z,4.00
2018-05-14T19:47:56.710Z,4.10
2018-05-14T19:50:25.907Z,3.77
2018-05-14T19:52:54.974Z,4.27
2018-05-14T19:55:23.269Z,3.97
2018-05-14T19:57:52.416Z,3.90
2018-05-14T20:00:20.702Z,4.03
2018-05-14T20:02:49.002Z,3.50
2018-05-14T20:05:17.320Z,3.30
2018-05-14T20:07:47.110Z,3.70
2018-05-14T20:10:15.419Z,3.80
2018-05-14T20:12:43.826Z,3.43
2018-05-14T20:15:12.117Z,3.57
2018-05-14T20:17:40.434Z,3.47
2018-05-14T20:20:08.806Z,3.60
2018-05-14T20:22:37.049Z,3.70
2018-05-14T20:25:05.345Z,4.53
2018-05-14T20:27:33.688Z,3.90
2018-05-14T20:30:01.977Z,3.27
2018-05-14T20:32:30.263Z,4.03
2018-05-14T20:34:59.468Z,3.70
2018-05-14T20:37:27.827Z,3.87
2018-05-14T20:39:56.149Z,3.43
2018-05-14T20:42:25.264Z,3.90
2018-05-14T20:44:53.570Z,3.70
2018-05-14T20:47:21.894Z,3.80
2018-05-14T20:49:51.075Z,4.00
2018-05-14T20:52:19.449Z,8.63
2018-05-14T20:54:47.767Z,3.50
2018-05-14T20:57:16.920Z,3.47
2018-05-14T20:59:45.371Z,3.63
2018-05-14T21:02:13.714Z,3.73
2018-05-14T21:04:42.979Z,3.43
2018-05-14T21:07:11.433Z,3.37
2018-05-14T21:09:39.754Z,4.17
2018-05-14T21:12:08.204Z,3.77
2018-05-14T21:14:36.802Z,4.07
2018-05-14T21:17:05.150Z,3.67
2018-05-14T21:19:33.491Z,4.00
2018-05-14T21:22:01.869Z,4.30
2018-05-14T21:24:31.002Z,4.00
2018-05-14T21:26:59.363Z,3.77
2018-05-14T21:29:28.452Z,4.17
2018-05-14T21:31:57.533Z,3.73
2018-05-14T21:34:26.645Z,3.77
2018-05-14T21:36:54.998Z,3.90
2018-05-14T21:39:23.359Z,4.20
2018-05-14T21:41:51.736Z,3.87
2018-05-14T21:44:20.035Z,3.70
2018-05-14T21:46:48.434Z,3.57
2018-05-14T21:49:18.394Z,3.83
2018-05-14T21:51:46.724Z,4.67
2018-05-14T21:54:15.798Z,4.17
2018-05-14T21:56:44.107Z,4.10
2018-05-14T21:59:12.474Z,3.80
2018-05-14T22:01:45.724Z,3.73
2018-05-14T22:04:14.881Z,4.07
2018-05-14T22:06:43.181Z,4.07
2018-05-14T22:09:11.606Z,4.00
2018-05-14T22:11:39.929Z,4.03
2018-05-14T22:14:08.214Z,3.80
2018-05-14T22:16:36.503Z,4.43
2018-05-14T22:19:04.821Z,3.87
2018-05-14T22:21:33.116Z,4.10
2018-05-14T22:24:02.182Z,3.93
2018-05-14T22:26:30.486Z,4.33
2018-05-14T22:28:58.827Z,4.93
2018-05-14T22:31:27.131Z,5.80
2018-05-14T22:36:29.765Z,5.07
2018-05-14T22:38:58.115Z,4.30
2018-05-14T22:41:26.539Z,4.17
2018-05-14T22:43:54.884Z,3.87
2018-05-14T22:46:23.908Z,4.10
2018-05-14T22:48:52.218Z,4.50
2018-05-14T22:51:20.678Z,4.30
2018-05-14T22:53:49.782Z,4.27
2018-05-14T22:56:18.060Z,4.13
2018-05-14T22:58:46.349Z,4.47
2018-05-14T23:01:14.642Z,4.00
2018-05-14T23:03:42.946Z,4.27
2018-05-14T23:06:11.263Z,4.70
2018-05-14T23:11:14.188Z,4.90
2018-05-14T23:13:42.537Z,4.73
2018-05-14T23:16:10.849Z,4.43
2018-05-14T23:18:39.971Z,4.47
2018-05-14T23:21:09.031Z,5.00
2018-05-14T23:23:37.312Z,4.97
2018-05-14T23:26:05.615Z,4.40
2018-05-14T23:28:34.747Z,5.03
2018-05-14T23:31:03.054Z,4.93
2018-05-14T23:33:31.346Z,4.70
2018-05-14T23:35:59.650Z,4.23
2018-05-14T23:38:28.744Z,4.73
2018-05-14T23:40:57.792Z,4.33
2018-05-14T23:43:26.067Z,4.63
2018-05-14T23:45:55.229Z,4.87
2018-05-14T23:48:23.426Z,4.97
2018-05-14T23:50:51.715Z,4.83
2018-05-14T23:53:19.994Z,4.20
2018-05-14T23:55:48.317Z,4.50
2018-05-14T23:58:17.392Z,4.00
